createdAt,value
2022-08-20T00:01:05.791Z,21.19
2022-08-20T00:03:38.509Z,21.22
2022-08-20T00:06:05.682Z,21.17
2022-08-20T00:08:32.384Z,21.16
2022-08-20T00:11:00.152Z,21.13
2022-08-20T00:13:33.644Z,21.09
2022-08-20T00:16:00.757Z,21.07
2022-08-20T00:18:27.608Z,21.06
2022-08-20T00:20:55.583Z,21.06
2022-08-20T00:23:24.026Z,21.03
2022-08-20T00:25:52.627Z,21.03
2022-08-20T00:28:19.492Z,21.00
2022-08-20T00:30:46.981Z,21.00
2022-08-20T00:33:19.862Z,21.02
2022-08-20T00:35:50.292Z,21.00
2022-08-20T00:38:17.071Z,20.97
2022-08-20T00:40:47.999Z,20.98
2022-08-20T00:43:29.452Z,21.00
2022-08-20T00:45:57.451Z,21.02
2022-08-20T00:48:26.852Z,21.02
2022-08-20T00:50:58.958Z,21.05
2022-08-20T00:53:26.857Z,21.05
2022-08-20T00:55:53.530Z,21.02
2022-08-20T00:58:20.197Z,21.01
2022-08-20T01:00:49.623Z,21.00
2022-08-20T01:03:20.462Z,21.01
2022-08-20T01:05:49.887Z,21.03
2022-08-20T01:08:19.505Z,21.01
2022-08-20T01:10:49.113Z,21.00
2022-08-20T01:13:23.788Z,20.99
2022-08-20T01:15:55.142Z,20.99
2022-08-20T01:18:26.513Z,20.99
2022-08-20T01:20:58.497Z,20.97
2022-08-20T01:23:54.477Z,20.97
2022-08-20T01:26:25.636Z,20.97
2022-08-20T01:29:27.961Z,20.99
2022-08-20T01:32:01.153Z,20.96
2022-08-20T01:34:28.953Z,20.93
2022-08-20T01:36:57.966Z,20.93
2022-08-20T01:39:32.287Z,20.95
2022-08-20T01:42:17.820Z,20.93
2022-08-20T01:44:47.068Z,20.91
2022-08-20T01:47:21.537Z,20.88
2022-08-20T01:49:55.582Z,20.83
2022-08-20T01:52:33.445Z,20.83
2022-08-20T01:55:00.190Z,20.82
2022-08-20T01:57:27.432Z,20.80
2022-08-20T01:59:54.321Z,20.83
2022-08-20T02:02:21.692Z,20.84
2022-08-20T02:04:48.582Z,20.82
2022-08-20T02:07:22.629Z,20.76
2022-08-20T02:09:50.048Z,20.74
2022-08-20T02:12:17.677Z,20.73
2022-08-20T02:14:48.842Z,20.70
2022-08-20T02:17:15.819Z,20.68
2022-08-20T02:19:49.050Z,20.69
2022-08-20T02:22:26.097Z,20.68
2022-08-20T02:24:52.924Z,20.63
2022-08-20T02:27:23.438Z,20.60
2022-08-20T02:29:51.394Z,20.60
2022-08-20T02:32:24.817Z,20.57
2022-08-20T02:35:02.278Z,20.50
2022-08-20T02:37:29.505Z,20.49
2022-08-20T02:39:56.123Z,20.49
2022-08-20T02:42:22.879Z,20.48
2022-08-20T02:44:49.511Z,20.50
2022-08-20T02:47:17.194Z,20.49
2022-08-20T02:49:43.856Z,20.48
2022-08-20T02:52:11.044Z,20.45
2022-08-20T02:54:37.785Z,20.42
2022-08-20T02:57:05.199Z,20.43
2022-08-20T02:59:31.736Z,20.44
2022-08-20T03:01:59.699Z,20.43
2022-08-20T03:04:29.020Z,20.44
2022-08-20T03:06:55.880Z,20.42
2022-08-20T03:09:22.515Z,20.41
2022-08-20T03:11:49.342Z,20.44
2022-08-20T03:14:15.982Z,20.43
2022-08-20T03:16:43.155Z,20.43
2022-08-20T03:19:09.747Z,20.42
2022-08-20T03:21:36.800Z,20.40
2022-08-20T03:24:03.690Z,20.38
2022-08-20T03:26:30.271Z,20.39
2022-08-20T03:28:57.291Z,20.38
2022-08-20T03:31:23.902Z,20.37
2022-08-20T03:33:53.016Z,20.37
2022-08-20T03:36:22.074Z,20.37
2022-08-20T03:38:48.884Z,20.39
2022-08-20T03:41:15.501Z,20.40
2022-08-20T03:43:42.300Z,20.36
2022-08-20T03:46:22.853Z,20.35
2022-08-20T03:48:56.340Z,20.29
2022-08-20T03:51:30.525Z,20.31
2022-08-20T03:53:57.646Z,20.29
2022-08-20T03:56:24.272Z,20.27
2022-08-20T03:58:51.062Z,20.25
2022-08-20T04:01:45.481Z,20.24
2022-08-20T04:04:04.800Z,20.22
2022-08-20T04:06:31.699Z,20.20
2022-08-20T04:08:58.504Z,20.18
2022-08-20T04:11:25.021Z,20.16
2022-08-20T04:13:51.757Z,20.16
2022-08-20T04:16:19.431Z,20.15
2022-08-20T04:18:56.272Z,20.12
2022-08-20T04:21:32.795Z,20.11
2022-08-20T04:24:03.180Z,20.06
2022-08-20T04:26:30.659Z,20.02
2022-08-20T04:28:57.356Z,19.98
2022-08-20T04:31:33.452Z,19.93
2022-08-20T04:34:04.698Z,19.90
2022-08-20T04:36:31.409Z,19.87
2022-08-20T04:38:58.047Z,19.84
2022-08-20T04:41:24.634Z,19.83
2022-08-20T04:43:54.033Z,19.80
2022-08-20T04:46:23.301Z,19.76
2022-08-20T04:48:50.315Z,19.74
2022-08-20T04:51:18.179Z,19.74
2022-08-20T04:53:53.174Z,19.73
2022-08-20T04:56:26.076Z,19.72
2022-08-20T04:58:55.154Z,19.71
2022-08-20T05:01:23.821Z,19.71
2022-08-20T05:03:53.647Z,19.69
2022-08-20T05:06:22.026Z,19.70
2022-08-20T05:08:48.662Z,19.72
2022-08-20T05:11:34.052Z,19.71
2022-08-20T05:14:02.496Z,19.71
2022-08-20T05:16:29.635Z,19.74
2022-08-20T05:18:56.262Z,19.77
2022-08-20T05:21:22.962Z,19.75
2022-08-20T05:23:50.600Z,19.78
2022-08-20T05:26:20.117Z,19.80
2022-08-20T05:28:54.235Z,19.82
2022-08-20T05:31:31.494Z,19.76
2022-08-20T05:34:11.004Z,19.77
2022-08-20T05:36:40.744Z,19.81
2022-08-20T05:39:08.855Z,19.89
2022-08-20T05:41:35.542Z,20.07
2022-08-20T05:44:02.303Z,20.26
2022-08-20T05:46:31.518Z,20.42
2022-08-20T05:49:00.143Z,20.53
2022-08-20T05:51:28.192Z,20.57
2022-08-20T05:53:55.281Z,20.58
2022-08-20T05:56:27.076Z,20.59
2022-08-20T05:58:54.043Z,20.62
2022-08-20T06:01:20.951Z,20.67
2022-08-20T06:04:07.141Z,20.75
2022-08-20T06:06:45.813Z,20.86
2022-08-20T06:09:30.720Z,20.96
2022-08-20T06:12:01.043Z,21.04
2022-08-20T06:14:27.707Z,21.12
2022-08-20T06:16:57.654Z,21.23
2022-08-20T06:19:26.580Z,21.46
2022-08-20T06:21:53.827Z,21.67
2022-08-20T06:24:21.599Z,21.72
2022-08-20T06:26:48.299Z,21.67
2022-08-20T06:29:15.840Z,21.59
2022-08-20T06:31:42.432Z,21.56
2022-08-20T06:34:09.047Z,21.62
2022-08-20T06:36:36.651Z,21.60
2022-08-20T06:39:03.723Z,21.52
2022-08-20T06:41:35.955Z,21.39
2022-08-20T06:44:03.843Z,21.29
2022-08-20T06:46:32.279Z,21.26
2022-08-20T06:48:59.307Z,21.20
2022-08-20T06:51:25.830Z,21.04
2022-08-20T06:53:52.366Z,20.92
2022-08-20T06:56:18.906Z,20.89
2022-08-20T06:58:45.554Z,20.99
2022-08-20T07:01:13.659Z,21.23
2022-08-20T07:03:42.331Z,21.49
2022-08-20T07:09:41.312Z,21.69
2022-08-20T07:15:39.909Z,21.61
2022-08-20T07:18:37.767Z,21.57
2022-08-20T07:21:17.235Z,21.47
2022-08-20T07:24:17.370Z,21.33
2022-08-20T07:26:58.674Z,21.09
2022-08-20T07:30:03.068Z,20.99
2022-08-20T07:39:08.300Z,21.21
2022-08-20T07:42:15.812Z,21.41
2022-08-20T07:48:31.079Z,21.68
2022-08-20T07:51:30.853Z,21.93
2022-08-20T07:54:13.735Z,22.03
2022-08-20T07:57:18.889Z,22.06
2022-08-20T08:00:01.511Z,22.04
2022-08-20T08:03:06.137Z,22.01
2022-08-20T08:09:18.463Z,21.83
2022-08-20T08:12:12.595Z,21.70
2022-08-20T08:15:15.228Z,21.58
2022-08-20T08:18:18.434Z,21.55
2022-08-20T08:21:31.943Z,21.68
2022-08-20T08:24:57.270Z,21.70
2022-08-20T08:28:02.413Z,21.83
2022-08-20T08:30:58.044Z,22.05
2022-08-20T08:33:57.287Z,22.28
2022-08-20T08:37:23.164Z,22.51
2022-08-20T08:40:26.774Z,22.67
2022-08-20T08:46:26.061Z,22.80
2022-08-20T08:49:16.709Z,22.98
2022-08-20T08:58:34.888Z,23.36
2022-08-20T09:01:54.948Z,23.37
2022-08-20T09:04:52.811Z,23.19
2022-08-20T09:07:55.181Z,23.08
2022-08-20T09:10:43.675Z,22.84
2022-08-20T09:13:39.255Z,22.75
2022-08-20T09:16:52.822Z,22.84
2022-08-20T09:19:40.772Z,23.18
2022-08-20T09:22:23.475Z,23.48
2022-08-20T09:25:13.137Z,23.41
2022-08-20T09:28:25.584Z,23.40
2022-08-20T09:31:29.351Z,23.59
2022-08-20T09:36:53.774Z,24.03
2022-08-20T09:39:21.379Z,24.04
2022-08-20T09:41:47.958Z,24.12
2022-08-20T09:44:14.493Z,24.21
2022-08-20T09:46:41.098Z,24.20
2022-08-20T09:49:08.943Z,24.33
2022-08-20T09:51:38.498Z,24.44
2022-08-20T09:54:05.558Z,24.43
2022-08-20T09:56:34.697Z,24.46
2022-08-20T09:59:02.990Z,24.57
2022-08-20T10:01:29.778Z,24.60
2022-08-20T10:03:57.209Z,24.69
2022-08-20T10:06:23.754Z,24.82
2022-08-20T10:08:50.826Z,24.97
2022-08-20T10:11:18.417Z,25.02
2022-08-20T10:13:45.469Z,25.09
2022-08-20T10:16:13.499Z,25.15
2022-08-20T10:18:40.138Z,25.41
2022-08-20T10:21:11.568Z,25.62
2022-08-20T10:23:38.336Z,25.55
2022-08-20T10:26:05.067Z,25.43
2022-08-20T10:28:31.657Z,25.50
2022-08-20T10:30:58.290Z,25.53
2022-08-20T10:33:24.812Z,25.56
2022-08-20T10:35:51.377Z,25.65
2022-08-20T10:38:22.422Z,25.76
2022-08-20T10:40:52.503Z,25.75
2022-08-20T10:43:19.398Z,25.69
2022-08-20T10:45:45.997Z,25.65
2022-08-20T10:48:12.530Z,25.69
2022-08-20T10:50:39.224Z,25.74
2022-08-20T10:53:05.749Z,25.82
2022-08-20T10:55:54.843Z,25.74
2022-08-20T10:58:23.817Z,25.76
2022-08-20T11:00:51.354Z,25.73
2022-08-20T11:03:18.606Z,25.73
2022-08-20T11:05:45.490Z,25.77
2022-08-20T11:08:12.125Z,25.87
2022-08-20T11:10:41.234Z,25.97
2022-08-20T11:13:08.298Z,26.15
2022-08-20T11:15:41.326Z,26.28
2022-08-20T11:18:13.692Z,26.28
2022-08-20T11:20:42.201Z,26.22
2022-08-20T11:23:08.866Z,26.17
2022-08-20T11:25:35.755Z,26.25
2022-08-20T11:28:03.527Z,26.38
2022-08-20T11:30:32.578Z,26.29
2022-08-20T11:33:00.373Z,26.19
2022-08-20T11:35:49.173Z,26.05
2022-08-20T11:38:17.528Z,26.08
2022-08-20T11:40:44.069Z,26.16
2022-08-20T11:43:16.259Z,26.05
2022-08-20T11:45:55.042Z,26.06
2022-08-20T11:48:22.317Z,25.93
2022-08-20T11:50:49.798Z,25.91
2022-08-20T11:53:16.657Z,25.89
2022-08-20T11:55:44.018Z,25.92
2022-08-20T11:58:11.307Z,26.22
2022-08-20T12:00:38.171Z,26.42
2022-08-20T12:03:09.363Z,26.61
2022-08-20T12:05:39.362Z,26.67
2022-08-20T12:08:06.707Z,26.86
2022-08-20T12:10:33.712Z,26.86
2022-08-20T12:13:00.372Z,26.60
2022-08-20T12:15:29.491Z,26.33
2022-08-20T12:17:56.378Z,26.17
2022-08-20T12:20:25.387Z,26.03
2022-08-20T12:22:53.925Z,25.96
2022-08-20T12:25:21.662Z,25.98
2022-08-20T12:27:48.266Z,25.95
2022-08-20T12:30:19.947Z,26.01
2022-08-20T12:32:48.087Z,26.09
2022-08-20T12:35:18.022Z,26.17
2022-08-20T12:37:45.887Z,26.25
2022-08-20T12:40:17.108Z,26.27
2022-08-20T12:42:51.118Z,26.42
2022-08-20T12:45:18.293Z,26.64
2022-08-20T12:47:47.702Z,26.78
2022-08-20T12:50:21.601Z,26.93
2022-08-20T12:52:49.143Z,26.89
2022-08-20T12:55:19.256Z,26.78
2022-08-20T12:57:51.608Z,26.51
2022-08-20T13:00:31.072Z,26.25
2022-08-20T13:03:00.901Z,26.15
2022-08-20T13:05:28.997Z,26.09
2022-08-20T13:07:56.285Z,26.02
2022-08-20T13:10:29.815Z,25.97
2022-08-20T13:12:56.684Z,25.94
2022-08-20T13:15:24.419Z,26.01
2022-08-20T13:17:54.891Z,26.21
2022-08-20T13:20:25.627Z,26.32
2022-08-20T13:22:58.129Z,26.38
2022-08-20T13:25:25.608Z,26.34
2022-08-20T13:27:58.727Z,26.41
2022-08-20T13:30:25.769Z,26.60
2022-08-20T13:32:52.607Z,26.73
2022-08-20T13:35:19.816Z,26.78
2022-08-20T13:37:48.670Z,26.89
2022-08-20T13:40:16.184Z,26.90
2022-08-20T13:42:42.999Z,26.92
2022-08-20T13:45:10.786Z,26.80
2022-08-20T13:47:38.981Z,26.74
2022-08-20T13:50:13.264Z,26.86
2022-08-20T13:52:42.758Z,26.98
2022-08-20T13:55:11.585Z,26.97
2022-08-20T13:57:39.203Z,26.91
2022-08-20T14:00:11.080Z,26.89
2022-08-20T14:02:38.061Z,26.95
2022-08-20T14:05:05.006Z,27.08
2022-08-20T14:07:32.719Z,26.87
2022-08-20T14:10:07.642Z,26.78
2022-08-20T14:12:34.294Z,26.92
2022-08-20T14:15:00.871Z,26.99
2022-08-20T14:17:30.213Z,27.07
2022-08-20T14:20:10.640Z,27.08
2022-08-20T14:22:37.332Z,27.17
2022-08-20T14:25:05.950Z,27.15
2022-08-20T14:27:34.012Z,27.03
2022-08-20T14:30:01.907Z,26.90
2022-08-20T14:32:28.581Z,26.89
2022-08-20T14:34:58.191Z,26.98
2022-08-20T14:37:26.252Z,26.92
2022-08-20T14:39:56.893Z,26.84
2022-08-20T14:42:24.253Z,26.82
2022-08-20T14:44:51.334Z,26.91
2022-08-20T14:47:30.266Z,27.02
2022-08-20T14:50:02.198Z,26.97
2022-08-20T14:52:29.452Z,26.89
2022-08-20T14:54:56.170Z,26.80
2022-08-20T14:57:23.516Z,26.72
2022-08-20T14:59:53.294Z,26.66
2022-08-20T15:02:20.321Z,26.52
2022-08-20T15:04:54.419Z,26.44
2022-08-20T15:07:26.886Z,26.52
2022-08-20T15:09:54.450Z,26.59
2022-08-20T15:12:21.781Z,26.70
2022-08-20T15:14:49.103Z,26.80
2022-08-20T15:17:24.918Z,26.81
2022-08-20T15:19:52.354Z,26.74
2022-08-20T15:22:20.216Z,26.58
2022-08-20T15:24:47.838Z,26.46
2022-08-20T15:27:22.735Z,26.45
2022-08-20T15:29:51.085Z,26.36
2022-08-20T15:32:18.563Z,26.44
2022-08-20T15:34:45.603Z,26.50
2022-08-20T15:37:18.995Z,26.55
2022-08-20T15:39:45.782Z,26.48
2022-08-20T15:42:15.444Z,26.32
2022-08-20T15:44:42.686Z,26.22
2022-08-20T15:47:28.102Z,26.13
2022-08-20T15:50:18.687Z,26.13
2022-08-20T15:52:45.440Z,26.13
2022-08-20T15:55:14.912Z,26.14
2022-08-20T15:57:58.565Z,26.15
2022-08-20T16:00:34.468Z,26.14
2022-08-20T16:03:13.278Z,26.23
2022-08-20T16:05:52.083Z,26.34
2022-08-20T16:08:46.248Z,26.42
2022-08-20T16:11:18.267Z,26.33
2022-08-20T16:13:50.677Z,26.28
2022-08-20T16:16:40.046Z,26.26
2022-08-20T16:19:16.128Z,26.22
2022-08-20T16:21:44.689Z,26.22
2022-08-20T16:24:13.949Z,26.17
2022-08-20T16:26:53.298Z,26.15
2022-08-20T16:29:38.297Z,26.18
2022-08-20T16:32:10.440Z,26.17
2022-08-20T16:34:58.548Z,26.20
2022-08-20T16:37:48.098Z,26.16
2022-08-20T16:40:26.575Z,26.07
2022-08-20T16:42:57.016Z,25.98
2022-08-20T16:45:50.818Z,25.92
2022-08-20T16:48:18.560Z,25.88
2022-08-20T16:50:59.032Z,25.79
2022-08-20T16:53:26.363Z,25.66
2022-08-20T16:55:54.629Z,25.59
2022-08-20T16:58:21.244Z,25.48
2022-08-20T17:00:48.171Z,25.41
2022-08-20T17:03:31.359Z,25.35
2022-08-20T17:06:46.856Z,25.19
2022-08-20T17:09:14.754Z,25.07
2022-08-20T17:12:07.042Z,25.03
2022-08-20T17:14:50.369Z,25.02
2022-08-20T17:17:39.046Z,24.99
2022-08-20T17:20:19.957Z,24.91
2022-08-20T17:23:09.454Z,24.89
2022-08-20T17:25:38.415Z,24.89
2022-08-20T17:28:19.792Z,24.82
2022-08-20T17:30:47.543Z,24.80
2022-08-20T17:33:33.064Z,24.75
2022-08-20T17:36:11.258Z,24.72
2022-08-20T17:38:46.522Z,24.72
2022-08-20T17:41:22.297Z,24.70
2022-08-20T17:43:58.266Z,24.66
2022-08-20T17:46:28.393Z,24.62
2022-08-20T17:48:57.627Z,24.59
2022-08-20T17:51:36.553Z,24.54
2022-08-20T17:54:20.278Z,24.50
2022-08-20T17:56:46.860Z,24.45
2022-08-20T18:00:00.664Z,24.38
2022-08-20T18:02:29.349Z,24.32
2022-08-20T18:04:56.060Z,24.26
2022-08-20T18:07:45.050Z,24.19
2022-08-20T18:10:20.783Z,24.13
2022-08-20T18:13:24.880Z,24.04
2022-08-20T18:15:56.473Z,23.94
2022-08-20T18:18:56.599Z,23.86
2022-08-20T18:22:01.455Z,23.76
2022-08-20T18:24:38.417Z,23.68
2022-08-20T18:27:11.608Z,23.66
2022-08-20T18:29:42.788Z,23.65
2022-08-20T18:32:39.268Z,23.61
2022-08-20T18:35:12.209Z,23.60
2022-08-20T18:37:40.008Z,23.58
2022-08-20T18:40:29.842Z,23.54
2022-08-20T18:43:10.673Z,23.49
2022-08-20T18:45:37.431Z,23.43
2022-08-20T18:48:05.755Z,23.39
2022-08-20T18:50:38.347Z,23.38
2022-08-20T18:53:23.676Z,23.35
2022-08-20T18:56:13.525Z,23.29
2022-08-20T18:59:15.534Z,23.19
2022-08-20T19:01:43.625Z,23.13
2022-08-20T19:04:32.006Z,23.10
2022-08-20T19:07:04.769Z,23.07
2022-08-20T19:10:09.459Z,22.99
2022-08-20T19:13:04.328Z,22.89
2022-08-20T19:15:33.545Z,22.82
2022-08-20T19:18:10.420Z,22.77
2022-08-20T19:20:51.260Z,22.72
2022-08-20T19:23:20.921Z,22.62
2022-08-20T19:26:06.545Z,22.50
2022-08-20T19:28:55.314Z,22.44
2022-08-20T19:31:28.351Z,22.40
2022-08-20T19:34:20.121Z,22.38
2022-08-20T19:37:35.589Z,22.38
2022-08-20T19:39:59.621Z,22.36
2022-08-20T19:42:32.266Z,22.35
2022-08-20T19:45:03.179Z,22.32
2022-08-20T19:47:52.603Z,22.30
2022-08-20T19:50:31.792Z,22.28
2022-08-20T19:53:17.196Z,22.31
2022-08-20T19:55:44.518Z,22.23
2022-08-20T19:58:26.389Z,22.20
2022-08-20T20:00:55.303Z,22.13
2022-08-20T20:03:32.126Z,22.07
2022-08-20T20:06:02.817Z,22.01
2022-08-20T20:08:40.175Z,22.00
2022-08-20T20:11:07.448Z,22.00
2022-08-20T20:13:37.657Z,21.99
2022-08-20T20:16:06.979Z,21.99
2022-08-20T20:18:41.791Z,21.93
2022-08-20T20:21:16.515Z,21.89
2022-08-20T20:23:56.801Z,21.87
2022-08-20T20:26:24.537Z,21.85
2022-08-20T20:28:59.978Z,21.82
2022-08-20T20:31:32.644Z,21.79
2022-08-20T20:34:07.243Z,21.72
2022-08-20T20:36:43.549Z,21.66
2022-08-20T20:39:30.330Z,21.63
2022-08-20T20:42:00.245Z,21.57
2022-08-20T20:44:47.098Z,21.57
2022-08-20T20:47:18.406Z,21.52
2022-08-20T20:49:52.425Z,21.48
2022-08-20T20:52:29.528Z,21.45
2022-08-20T20:55:10.986Z,21.44
2022-08-20T20:57:39.118Z,21.38
2022-08-20T21:00:13.781Z,21.32
2022-08-20T21:02:40.950Z,21.24
2022-08-20T21:05:08.189Z,21.20
2022-08-20T21:07:34.903Z,21.14
2022-08-20T21:10:01.627Z,21.12
2022-08-20T21:12:28.195Z,21.09
2022-08-20T21:14:54.835Z,21.04
2022-08-20T21:17:23.015Z,21.02
2022-08-20T21:19:51.195Z,21.02
2022-08-20T21:22:19.658Z,20.99
2022-08-20T21:24:51.252Z,20.97
2022-08-20T21:27:24.504Z,20.99
2022-08-20T21:29:51.687Z,21.02
2022-08-20T21:32:19.379Z,21.03
2022-08-20T21:34:46.087Z,21.07
2022-08-20T21:37:13.410Z,21.07
2022-08-20T21:39:40.377Z,21.08
2022-08-20T21:42:18.566Z,21.08
2022-08-20T21:44:55.724Z,21.06
2022-08-20T21:47:22.398Z,21.05
2022-08-20T21:49:49.002Z,21.02
2022-08-20T21:52:15.610Z,20.98
2022-08-20T21:54:42.218Z,20.96
2022-08-20T21:57:17.083Z,20.92
2022-08-20T21:59:43.715Z,20.91
2022-08-20T22:02:10.327Z,20.88
2022-08-20T22:04:37.384Z,20.83
2022-08-20T22:07:04.589Z,20.80
2022-08-20T22:09:32.966Z,20.81
2022-08-20T22:12:02.710Z,20.74
2022-08-20T22:14:30.256Z,20.68
2022-08-20T22:16:57.961Z,20.62
2022-08-20T22:19:24.697Z,20.61
2022-08-20T22:21:54.662Z,20.57
2022-08-20T22:24:29.523Z,20.50
2022-08-20T22:26:56.161Z,20.45
2022-08-20T22:29:22.932Z,20.41
2022-08-20T22:31:49.555Z,20.35
2022-08-20T22:34:19.235Z,20.26
2022-08-20T22:36:46.701Z,20.20
2022-08-20T22:39:14.293Z,20.20
2022-08-20T22:41:42.053Z,20.18
2022-08-20T22:44:08.669Z,20.13
2022-08-20T22:46:42.462Z,20.09
2022-08-20T22:49:13.319Z,20.09
2022-08-20T22:51:42.107Z,20.05
2022-08-20T22:54:12.868Z,19.96
2022-08-20T22:56:39.442Z,19.90
2022-08-20T22:59:07.862Z,19.85
2022-08-20T23:01:34.521Z,19.75
2022-08-20T23:04:07.316Z,19.67
2022-08-20T23:06:34.078Z,19.59
2022-08-20T23:09:00.668Z,19.52
2022-08-20T23:11:27.293Z,19.47
2022-08-20T23:13:53.933Z,19.41
2022-08-20T23:16:20.585Z,19.36
2022-08-20T23:18:47.359Z,19.32
2022-08-20T23:21:14.899Z,19.24
2022-08-20T23:23:41.887Z,19.17
2022-08-20T23:26:08.515Z,19.11
2022-08-20T23:28:35.206Z,19.05
2022-08-20T23:31:01.932Z,19.01
2022-08-20T23:33:28.487Z,18.95
2022-08-20T23:35:55.533Z,18.89
2022-08-20T23:38:22.081Z,18.82
2022-08-20T23:40:48.717Z,18.75
2022-08-20T23:43:15.308Z,18.70
2022-08-20T23:45:42.278Z,18.64
2022-08-20T23:48:09.261Z,18.58
2022-08-20T23:50:36.466Z,18.55
2022-08-20T23:53:04.456Z,18.52
2022-08-20T23:55:31.247Z,18.48
2022-08-20T23:57:57.886Z,18.47
